sensor_id;sensor_type;location;lat;lon;timestamp;temperature;humidity
51011;DHT22;37038;50.182;8.624;2024-01-07T00:02:36;5.00;1.00
51011;DHT22;37038;50.182;8.624;2024-01-07T00:05:27;5.00;1.00
51011;DHT22;37038;50.182;8.624;2024-01-07T00:08:18;5.00;1.00
51011;DHT22;37038;50.182;8.624;2024-01-07T00:11:09;4.90;1.00
51011;DHT22;37038;50.182;8.624;2024-01-07T00:13:57;4.90;1.00
51011;DHT22;37038;50.182;8.624;2024-01-07T00:16:46;4.80;1.00
51011;DHT22;37038;50.182;8.624;2024-01-07T00:19:34;4.80;1.00
51011;DHT22;37038;50.182;8.624;2024-01-07T00:22:23;4.80;1.00
51011;DHT22;37038;50.182;8.624;2024-01-07T00:25:12;4.90;1.00
51011;DHT22;37038;50.182;8.624;2024-01-07T00:28:01;4.80;1.00
51011;DHT22;37038;50.182;8.624;2024-01-07T00:30:49;4.70;1.00
51011;DHT22;37038;50.182;8.624;2024-01-07T00:33:40;4.70;1.00
51011;DHT22;37038;50.182;8.624;2024-01-07T00:36:29;4.80;1.00
51011;DHT22;37038;50.182;8.624;2024-01-07T00:39:21;4.70;1.00
51011;DHT22;37038;50.182;8.624;2024-01-07T00:42:15;4.70;1.00
51011;DHT22;37038;50.182;8.624;2024-01-07T00:45:03;4.70;1.00
51011;DHT22;37038;50.182;8.624;2024-01-07T00:47:51;4.70;1.00
51011;DHT22;37038;50.182;8.624;2024-01-07T00:50:42;4.60;1.00
51011;DHT22;37038;50.182;8.624;2024-01-07T00:53:31;4.70;1.00
51011;DHT22;37038;50.182;8.624;2024-01-07T00:56:19;4.70;1.00
51011;DHT22;37038;50.182;8.624;2024-01-07T00:59:07;4.60;1.00
51011;DHT22;37038;50.182;8.624;2024-01-07T01:01:55;4.60;1.00
51011;DHT22;37038;50.182;8.624;2024-01-07T01:04:46;4.60;1.00
51011;DHT22;37038;50.182;8.624;2024-01-07T01:07:35;4.70;1.00
51011;DHT22;37038;50.182;8.624;2024-01-07T01:10:23;4.70;1.00
51011;DHT22;37038;50.182;8.624;2024-01-07T01:13:11;4.70;1.00
51011;DHT22;37038;50.182;8.624;2024-01-07T01:15:59;4.70;1.00
51011;DHT22;37038;50.182;8.624;2024-01-07T01:18:47;4.70;1.00
51011;DHT22;37038;50.182;8.624;2024-01-07T01:21:36;4.80;1.00
51011;DHT22;37038;50.182;8.624;2024-01-07T01:24:27;4.80;1.00
51011;DHT22;37038;50.182;8.624;2024-01-07T01:27:15;4.80;1.00
51011;DHT22;37038;50.182;8.624;2024-01-07T01:30:04;4.90;1.00
51011;DHT22;37038;50.182;8.624;2024-01-07T01:32:52;4.80;1.00
51011;DHT22;37038;50.182;8.624;2024-01-07T01:35:42;4.70;1.00
51011;DHT22;37038;50.182;8.624;2024-01-07T01:38:32;4.60;1.00
51011;DHT22;37038;50.182;8.624;2024-01-07T01:41:21;4.70;1.00
51011;DHT22;37038;50.182;8.624;2024-01-07T01:44:09;4.70;1.00
51011;DHT22;37038;50.182;8.624;2024-01-07T01:46:58;4.70;1.00
51011;DHT22;37038;50.182;8.624;2024-01-07T01:49:48;4.60;1.00
51011;DHT22;37038;50.182;8.624;2024-01-07T01:52:36;4.60;1.00
51011;DHT22;37038;50.182;8.624;2024-01-07T01:55:25;4.70;1.00
51011;DHT22;37038;50.182;8.624;2024-01-07T01:58:18;4.70;1.00
51011;DHT22;37038;50.182;8.624;2024-01-07T02:01:07;4.70;1.00
51011;DHT22;37038;50.182;8.624;2024-01-07T02:03:57;4.70;1.00
51011;DHT22;37038;50.182;8.624;2024-01-07T02:06:45;4.80;1.00
51011;DHT22;37038;50.182;8.624;2024-01-07T02:09:34;4.90;1.00
51011;DHT22;37038;50.182;8.624;2024-01-07T02:12:23;5.00;1.00
51011;DHT22;37038;50.182;8.624;2024-01-07T02:15:14;5.00;1.00
51011;DHT22;37038;50.182;8.624;2024-01-07T02:18:03;5.00;1.00
51011;DHT22;37038;50.182;8.624;2024-01-07T02:20:54;4.80;1.00
51011;DHT22;37038;50.182;8.624;2024-01-07T02:23:42;4.70;30.10
51011;DHT22;37038;50.182;8.624;2024-01-07T02:26:30;4.60;93.80
51011;DHT22;37038;50.182;8.624;2024-01-07T02:29:18;4.40;99.90
51011;DHT22;37038;50.182;8.624;2024-01-07T02:32:06;4.40;99.90
51011;DHT22;37038;50.182;8.624;2024-01-07T02:34:54;4.30;99.90
51011;DHT22;37038;50.182;8.624;2024-01-07T02:37:43;4.30;99.90
51011;DHT22;37038;50.182;8.624;2024-01-07T02:40:31;4.30;99.90
51011;DHT22;37038;50.182;8.624;2024-01-07T02:43:22;4.40;99.90
51011;DHT22;37038;50.182;8.624;2024-01-07T02:46:10;4.40;99.90
51011;DHT22;37038;50.182;8.624;2024-01-07T02:48:58;4.30;99.90
51011;DHT22;37038;50.182;8.624;2024-01-07T02:51:52;4.20;99.90
51011;DHT22;37038;50.182;8.624;2024-01-07T02:54:40;4.10;99.90
51011;DHT22;37038;50.182;8.624;2024-01-07T02:57:30;4.10;99.90
51011;DHT22;37038;50.182;8.624;2024-01-07T03:00:19;4.20;99.90
51011;DHT22;37038;50.182;8.624;2024-01-07T03:03:10;4.20;99.90
51011;DHT22;37038;50.182;8.624;2024-01-07T03:05:58;4.20;99.90
51011;DHT22;37038;50.182;8.624;2024-01-07T03:08:47;4.10;99.90
51011;DHT22;37038;50.182;8.624;2024-01-07T03:11:40;4.10;99.90
51011;DHT22;37038;50.182;8.624;2024-01-07T03:14:29;4.20;99.90
51011;DHT22;37038;50.182;8.624;2024-01-07T03:17:17;4.20;99.90
51011;DHT22;37038;50.182;8.624;2024-01-07T03:20:06;4.20;99.90
51011;DHT22;37038;50.182;8.624;2024-01-07T03:22:54;4.10;99.90
51011;DHT22;37038;50.182;8.624;2024-01-07T03:25:43;4.00;99.90
51011;DHT22;37038;50.182;8.624;2024-01-07T03:28:31;4.00;99.90
51011;DHT22;37038;50.182;8.624;2024-01-07T03:31:19;4.00;99.90
51011;DHT22;37038;50.182;8.624;2024-01-07T03:34:07;4.00;99.90
51011;DHT22;37038;50.182;8.624;2024-01-07T03:36:56;3.90;99.90
51011;DHT22;37038;50.182;8.624;2024-01-07T03:39:46;3.90;99.90
51011;DHT22;37038;50.182;8.624;2024-01-07T03:42:35;3.90;99.90
51011;DHT22;37038;50.182;8.624;2024-01-07T03:45:23;3.90;99.90
51011;DHT22;37038;50.182;8.624;2024-01-07T03:48:11;3.90;99.90
51011;DHT22;37038;50.182;8.624;2024-01-07T03:51:00;3.90;99.90
51011;DHT22;37038;50.182;8.624;2024-01-07T03:53:52;4.00;99.90
51011;DHT22;37038;50.182;8.624;2024-01-07T03:56:41;4.00;99.90
51011;DHT22;37038;50.182;8.624;2024-01-07T03:59:29;4.10;99.90
51011;DHT22;37038;50.182;8.624;2024-01-07T04:02:17;4.10;99.90
51011;DHT22;37038;50.182;8.624;2024-01-07T04:05:05;4.20;99.90
51011;DHT22;37038;50.182;8.624;2024-01-07T04:07:54;4.20;99.90
51011;DHT22;37038;50.182;8.624;2024-01-07T04:10:45;4.00;99.90
51011;DHT22;37038;50.182;8.624;2024-01-07T04:13:33;4.00;99.90
51011;DHT22;37038;50.182;8.624;2024-01-07T04:16:24;4.00;99.90
51011;DHT22;37038;50.182;8.624;2024-01-07T04:19:12;3.90;99.90
51011;DHT22;37038;50.182;8.624;2024-01-07T04:22:01;3.90;99.90
51011;DHT22;37038;50.182;8.624;2024-01-07T04:24:50;3.90;99.90
51011;DHT22;37038;50.182;8.624;2024-01-07T04:27:38;3.90;99.90
51011;DHT22;37038;50.182;8.624;2024-01-07T04:30:27;3.90;99.90
51011;DHT22;37038;50.182;8.624;2024-01-07T04:33:15;3.90;99.90
51011;DHT22;37038;50.182;8.624;2024-01-07T04:36:03;3.90;99.90
51011;DHT22;37038;50.182;8.624;2024-01-07T04:38:52;3.90;99.90
51011;DHT22;37038;50.182;8.624;2024-01-07T04:41:40;4.00;99.90
51011;DHT22;37038;50.182;8.624;2024-01-07T04:44:30;4.00;99.90
51011;DHT22;37038;50.182;8.624;2024-01-07T04:50:18;4.00;99.90
51011;DHT22;37038;50.182;8.624;2024-01-07T04:53:08;4.10;99.90
51011;DHT22;37038;50.182;8.624;2024-01-07T04:55:56;4.10;99.90
51011;DHT22;37038;50.182;8.624;2024-01-07T04:58:45;4.10;99.90
51011;DHT22;37038;50.182;8.624;2024-01-07T05:01:33;4.10;99.90
51011;DHT22;37038;50.182;8.624;2024-01-07T05:04:22;4.00;99.90
51011;DHT22;37038;50.182;8.624;2024-01-07T05:07:10;4.00;99.90
51011;DHT22;37038;50.182;8.624;2024-01-07T05:09:58;4.00;99.90
51011;DHT22;37038;50.182;8.624;2024-01-07T05:12:47;4.00;99.90
51011;DHT22;37038;50.182;8.624;2024-01-07T05:15:35;4.00;99.90
51011;DHT22;37038;50.182;8.624;2024-01-07T05:18:24;4.00;99.90
51011;DHT22;37038;50.182;8.624;2024-01-07T05:21:13;4.10;99.90
51011;DHT22;37038;50.182;8.624;2024-01-07T05:24:02;4.00;99.90
51011;DHT22;37038;50.182;8.624;2024-01-07T05:26:55;4.10;99.90
51011;DHT22;37038;50.182;8.624;2024-01-07T05:29:46;4.20;99.90
51011;DHT22;37038;50.182;8.624;2024-01-07T05:32:39;4.10;99.90
51011;DHT22;37038;50.182;8.624;2024-01-07T05:35:27;4.10;99.90
51011;DHT22;37038;50.182;8.624;2024-01-07T05:38:16;4.10;99.90
51011;DHT22;37038;50.182;8.624;2024-01-07T05:41:04;4.10;99.90
51011;DHT22;37038;50.182;8.624;2024-01-07T05:43:53;4.10;99.90
51011;DHT22;37038;50.182;8.624;2024-01-07T05:46:41;4.10;99.90
51011;DHT22;37038;50.182;8.624;2024-01-07T05:49:29;4.00;99.90
51011;DHT22;37038;50.182;8.624;2024-01-07T05:52:18;3.90;99.90
51011;DHT22;37038;50.182;8.624;2024-01-07T05:55:06;3.80;99.90
51011;DHT22;37038;50.182;8.624;2024-01-07T05:57:54;3.90;99.90
51011;DHT22;37038;50.182;8.624;2024-01-07T06:00:45;3.80;99.90
51011;DHT22;37038;50.182;8.624;2024-01-07T06:03:33;3.80;99.90
51011;DHT22;37038;50.182;8.624;2024-01-07T06:06:21;3.70;99.90
51011;DHT22;37038;50.182;8.624;2024-01-07T06:09:10;3.60;99.90
51011;DHT22;37038;50.182;8.624;2024-01-07T06:11:58;3.70;99.90
51011;DHT22;37038;50.182;8.624;2024-01-07T06:14:49;3.70;99.90
51011;DHT22;37038;50.182;8.624;2024-01-07T06:17:37;3.70;99.90
51011;DHT22;37038;50.182;8.624;2024-01-07T06:20:26;3.70;98.50
51011;DHT22;37038;50.182;8.624;2024-01-07T06:23:14;3.70;97.60
51011;DHT22;37038;50.182;8.624;2024-01-07T06:26:03;3.60;99.90
51011;DHT22;37038;50.182;8.624;2024-01-07T06:28:54;3.70;99.90
51011;DHT22;37038;50.182;8.624;2024-01-07T06:31:43;3.60;99.90
51011;DHT22;37038;50.182;8.624;2024-01-07T06:34:37;3.60;99.90
51011;DHT22;37038;50.182;8.624;2024-01-07T06:37:25;3.60;99.90
51011;DHT22;37038;50.182;8.624;2024-01-07T06:40:16;3.50;99.90
51011;DHT22;37038;50.182;8.624;2024-01-07T06:43:05;3.50;99.90
51011;DHT22;37038;50.182;8.624;2024-01-07T06:45:54;3.50;99.90
51011;DHT22;37038;50.182;8.624;2024-01-07T06:48:45;3.50;99.90
51011;DHT22;37038;50.182;8.624;2024-01-07T06:51:42;3.40;68.30
51011;DHT22;37038;50.182;8.624;2024-01-07T06:54:31;3.40;61.50
51011;DHT22;37038;50.182;8.624;2024-01-07T06:57:25;3.30;40.10
51011;DHT22;37038;50.182;8.624;2024-01-07T07:00:16;3.40;98.80
51011;DHT22;37038;50.182;8.624;2024-01-07T07:03:06;3.40;66.80
51011;DHT22;37038;50.182;8.624;2024-01-07T07:05:54;3.40;56.70
51011;DHT22;37038;50.182;8.624;2024-01-07T07:08:54;3.30;6.40
51011;DHT22;37038;50.182;8.624;2024-01-07T07:11:43;3.20;1.00
51011;DHT22;37038;50.182;8.624;2024-01-07T07:14:38;3.20;1.00
51011;DHT22;37038;50.182;8.624;2024-01-07T07:17:39;3.20;1.00
51011;DHT22;37038;50.182;8.624;2024-01-07T07:21:08;3.20;1.00
51011;DHT22;37038;50.182;8.624;2024-01-07T07:24:15;3.10;27.60
51011;DHT22;37038;50.182;8.624;2024-01-07T07:27:33;3.20;33.20
51011;DHT22;37038;50.182;8.624;2024-01-07T07:30:22;3.30;78.70
51011;DHT22;37038;50.182;8.624;2024-01-07T07:33:14;3.30;16.70
51011;DHT22;37038;50.182;8.624;2024-01-07T07:36:12;3.30;56.90
51011;DHT22;37038;50.182;8.624;2024-01-07T07:39:17;3.30;25.80
51011;DHT22;37038;50.182;8.624;2024-01-07T07:42:08;3.20;17.00
51011;DHT22;37038;50.182;8.624;2024-01-07T07:45:41;3.20;33.80
51011;DHT22;37038;50.182;8.624;2024-01-07T07:48:51;3.20;46.50
51011;DHT22;37038;50.182;8.624;2024-01-07T07:51:46;3.20;20.00
51011;DHT22;37038;50.182;8.624;2024-01-07T07:54:56;3.20;32.80
51011;DHT22;37038;50.182;8.624;2024-01-07T07:57:52;3.10;40.60
51011;DHT22;37038;50.182;8.624;2024-01-07T08:01:01;3.00;27.50
51011;DHT22;37038;50.182;8.624;2024-01-07T08:07:15;3.00;99.90
51011;DHT22;37038;50.182;8.624;2024-01-07T08:10:34;3.00;99.90
51011;DHT22;37038;50.182;8.624;2024-01-07T08:13:37;3.00;92.40
51011;DHT22;37038;50.182;8.624;2024-01-07T08:16:41;2.90;99.90
51011;DHT22;37038;50.182;8.624;2024-01-07T08:19:36;3.00;90.60
51011;DHT22;37038;50.182;8.624;2024-01-07T08:22:33;3.00;99.90
51011;DHT22;37038;50.182;8.624;2024-01-07T08:25:38;3.00;36.90
51011;DHT22;37038;50.182;8.624;2024-01-07T08:28:32;2.90;1.00
51011;DHT22;37038;50.182;8.624;2024-01-07T08:32:11;2.90;1.00
51011;DHT22;37038;50.182;8.624;2024-01-07T08:35:13;3.00;1.00
51011;DHT22;37038;50.182;8.624;2024-01-07T08:38:39;3.00;1.00
51011;DHT22;37038;50.182;8.624;2024-01-07T08:41:45;3.10;1.00
51011;DHT22;37038;50.182;8.624;2024-01-07T08:45:02;3.00;1.00
51011;DHT22;37038;50.182;8.624;2024-01-07T08:48:39;3.00;1.00
51011;DHT22;37038;50.182;8.624;2024-01-07T08:52:12;3.10;1.00
51011;DHT22;37038;50.182;8.624;2024-01-07T08:55:42;3.10;1.00
51011;DHT22;37038;50.182;8.624;2024-01-07T08:58:54;3.10;1.00
51011;DHT22;37038;50.182;8.624;2024-01-07T09:02:29;3.10;1.00
51011;DHT22;37038;50.182;8.624;2024-01-07T09:05:55;3.00;1.00
51011;DHT22;37038;50.182;8.624;2024-01-07T09:09:29;3.00;1.00
51011;DHT22;37038;50.182;8.624;2024-01-07T09:16:22;3.00;1.00
51011;DHT22;37038;50.182;8.624;2024-01-07T09:19:28;3.10;99.90
51011;DHT22;37038;50.182;8.624;2024-01-07T09:22:38;3.10;1.00
51011;DHT22;37038;50.182;8.624;2024-01-07T09:25:57;3.10;1.00
51011;DHT22;37038;50.182;8.624;2024-01-07T09:29:11;3.10;99.90
51011;DHT22;37038;50.182;8.624;2024-01-07T09:32:08;3.00;99.90
51011;DHT22;37038;50.182;8.624;2024-01-07T09:35:19;3.10;99.90
51011;DHT22;37038;50.182;8.624;2024-01-07T09:38:32;3.10;99.90
51011;DHT22;37038;50.182;8.624;2024-01-07T09:45:47;3.10;99.90
51011;DHT22;37038;50.182;8.624;2024-01-07T09:48:59;3.10;99.90
51011;DHT22;37038;50.182;8.624;2024-01-07T09:52:05;3.20;99.90
51011;DHT22;37038;50.182;8.624;2024-01-07T09:55:03;3.00;99.90
51011;DHT22;37038;50.182;8.624;2024-01-07T09:58:11;3.00;99.90
51011;DHT22;37038;50.182;8.624;2024-01-07T10:01:33;3.20;99.90
51011;DHT22;37038;50.182;8.624;2024-01-07T10:05:12;3.10;99.90
51011;DHT22;37038;50.182;8.624;2024-01-07T10:08:41;3.10;1.00
51011;DHT22;37038;50.182;8.624;2024-01-07T10:12:31;3.00;99.90
51011;DHT22;37038;50.182;8.624;2024-01-07T10:16:19;3.20;99.90
51011;DHT22;37038;50.182;8.624;2024-01-07T10:19:29;3.20;99.90
51011;DHT22;37038;50.182;8.624;2024-01-07T10:22:54;3.00;99.90
51011;DHT22;37038;50.182;8.624;2024-01-07T10:26:17;2.90;99.90
51011;DHT22;37038;50.182;8.624;2024-01-07T10:29:44;2.90;99.90
51011;DHT22;37038;50.182;8.624;2024-01-07T10:32:46;2.80;99.90
51011;DHT22;37038;50.182;8.624;2024-01-07T10:36:05;2.70;99.90
51011;DHT22;37038;50.182;8.624;2024-01-07T10:39:27;2.70;99.90
51011;DHT22;37038;50.182;8.624;2024-01-07T10:42:33;2.80;99.90
51011;DHT22;37038;50.182;8.624;2024-01-07T10:45:38;2.70;99.90
51011;DHT22;37038;50.182;8.624;2024-01-07T10:49:23;2.70;99.90
51011;DHT22;37038;50.182;8.624;2024-01-07T10:52:40;2.80;99.90
51011;DHT22;37038;50.182;8.624;2024-01-07T10:56:08;2.90;72.00
51011;DHT22;37038;50.182;8.624;2024-01-07T10:59:25;3.20;99.90
51011;DHT22;37038;50.182;8.624;2024-01-07T11:10:41;3.00;1.00
51011;DHT22;37038;50.182;8.624;2024-01-07T11:17:40;2.80;99.90
51011;DHT22;37038;50.182;8.624;2024-01-07T11:20:39;2.90;99.90
51011;DHT22;37038;50.182;8.624;2024-01-07T11:23:59;3.00;1.00
51011;DHT22;37038;50.182;8.624;2024-01-07T11:27:20;3.00;1.00
51011;DHT22;37038;50.182;8.624;2024-01-07T11:30:19;2.90;7.50
51011;DHT22;37038;50.182;8.624;2024-01-07T11:33:16;2.80;8.20
51011;DHT22;37038;50.182;8.624;2024-01-07T11:36:14;2.80;1.00
51011;DHT22;37038;50.182;8.624;2024-01-07T11:39:10;2.60;1.00
51011;DHT22;37038;50.182;8.624;2024-01-07T11:42:36;2.40;1.00
51011;DHT22;37038;50.182;8.624;2024-01-07T11:45:31;2.50;1.00
51011;DHT22;37038;50.182;8.624;2024-01-07T11:48:23;2.30;99.90
51011;DHT22;37038;50.182;8.624;2024-01-07T11:51:21;2.30;1.00
51011;DHT22;37038;50.182;8.624;2024-01-07T11:54:20;2.30;99.90
51011;DHT22;37038;50.182;8.624;2024-01-07T11:57:22;2.30;1.00
51011;DHT22;37038;50.182;8.624;2024-01-07T12:00:19;2.30;1.00
51011;DHT22;37038;50.182;8.624;2024-01-07T12:03:13;2.30;1.00
51011;DHT22;37038;50.182;8.624;2024-01-07T12:06:16;2.30;1.00
51011;DHT22;37038;50.182;8.624;2024-01-07T12:09:23;2.40;1.00
51011;DHT22;37038;50.182;8.624;2024-01-07T12:12:17;2.40;1.00
51011;DHT22;37038;50.182;8.624;2024-01-07T12:15:08;2.30;1.00
51011;DHT22;37038;50.182;8.624;2024-01-07T12:18:01;2.30;92.20
51011;DHT22;37038;50.182;8.624;2024-01-07T12:21:01;2.40;1.00
51011;DHT22;37038;50.182;8.624;2024-01-07T12:23:58;2.30;1.00
51011;DHT22;37038;50.182;8.624;2024-01-07T12:27:04;2.30;1.00
51011;DHT22;37038;50.182;8.624;2024-01-07T12:30:13;2.20;1.00
51011;DHT22;37038;50.182;8.624;2024-01-07T12:33:09;2.10;1.00
51011;DHT22;37038;50.182;8.624;2024-01-07T12:36:11;2.10;1.00
51011;DHT22;37038;50.182;8.624;2024-01-07T12:39:10;2.00;1.00
51011;DHT22;37038;50.182;8.624;2024-01-07T12:42:09;2.00;1.00
51011;DHT22;37038;50.182;8.624;2024-01-07T12:45:06;1.90;15.20
51011;DHT22;37038;50.182;8.624;2024-01-07T12:48:07;2.00;1.00
51011;DHT22;37038;50.182;8.624;2024-01-07T12:51:01;2.00;1.00
51011;DHT22;37038;50.182;8.624;2024-01-07T12:53:54;2.00;7.90
51011;DHT22;37038;50.182;8.624;2024-01-07T12:56:55;1.90;97.20
51011;DHT22;37038;50.182;8.624;2024-01-07T12:59:48;1.90;1.00
51011;DHT22;37038;50.182;8.624;2024-01-07T13:02:51;1.70;1.00
51011;DHT22;37038;50.182;8.624;2024-01-07T13:05:46;1.70;1.00
51011;DHT22;37038;50.182;8.624;2024-01-07T13:08:50;1.80;99.90
51011;DHT22;37038;50.182;8.624;2024-01-07T13:11:42;1.80;99.90
51011;DHT22;37038;50.182;8.624;2024-01-07T13:14:47;1.80;99.90
51011;DHT22;37038;50.182;8.624;2024-01-07T13:17:36;1.70;99.90
51011;DHT22;37038;50.182;8.624;2024-01-07T13:20:25;1.70;1.00
51011;DHT22;37038;50.182;8.624;2024-01-07T13:23:16;1.70;99.90
51011;DHT22;37038;50.182;8.624;2024-01-07T13:26:13;1.60;99.90
51011;DHT22;37038;50.182;8.624;2024-01-07T13:29:07;1.60;99.90
51011;DHT22;37038;50.182;8.624;2024-01-07T13:31:55;1.60;1.00
51011;DHT22;37038;50.182;8.624;2024-01-07T13:34:45;1.50;99.90
51011;DHT22;37038;50.182;8.624;2024-01-07T13:37:34;1.50;99.90
51011;DHT22;37038;50.182;8.624;2024-01-07T13:40:26;1.50;99.90
51011;DHT22;37038;50.182;8.624;2024-01-07T13:43:25;1.40;1.00
51011;DHT22;37038;50.182;8.624;2024-01-07T13:46:20;1.40;99.90
51011;DHT22;37038;50.182;8.624;2024-01-07T13:49:28;1.40;1.00
51011;DHT22;37038;50.182;8.624;2024-01-07T13:52:17;1.40;1.00
51011;DHT22;37038;50.182;8.624;2024-01-07T13:55:29;1.40;1.00
51011;DHT22;37038;50.182;8.624;2024-01-07T13:58:28;1.50;1.00
51011;DHT22;37038;50.182;8.624;2024-01-07T14:01:23;1.40;1.00
51011;DHT22;37038;50.182;8.624;2024-01-07T14:04:13;1.40;99.90
51011;DHT22;37038;50.182;8.624;2024-01-07T14:07:08;1.40;99.90
51011;DHT22;37038;50.182;8.624;2024-01-07T14:10:14;1.20;99.90
51011;DHT22;37038;50.182;8.624;2024-01-07T14:13:07;1.30;39.30
51011;DHT22;37038;50.182;8.624;2024-01-07T14:15:56;1.30;1.00
51011;DHT22;37038;50.182;8.624;2024-01-07T14:18:59;1.20;99.90
51011;DHT22;37038;50.182;8.624;2024-01-07T14:21:57;1.20;97.50
51011;DHT22;37038;50.182;8.624;2024-01-07T14:25:04;1.10;71.60
51011;DHT22;37038;50.182;8.624;2024-01-07T14:27:57;1.20;99.90
51011;DHT22;37038;50.182;8.624;2024-01-07T14:30:56;1.20;99.90
51011;DHT22;37038;50.182;8.624;2024-01-07T14:33:48;1.10;1.00
51011;DHT22;37038;50.182;8.624;2024-01-07T14:36:41;0.90;99.90
51011;DHT22;37038;50.182;8.624;2024-01-07T14:39:33;0.90;1.00
51011;DHT22;37038;50.182;8.624;2024-01-07T14:42:26;0.80;99.90
51011;DHT22;37038;50.182;8.624;2024-01-07T14:45:21;0.90;99.90
51011;DHT22;37038;50.182;8.624;2024-01-07T14:48:19;0.80;99.90
51011;DHT22;37038;50.182;8.624;2024-01-07T14:51:17;0.70;99.90
51011;DHT22;37038;50.182;8.624;2024-01-07T14:54:15;0.70;99.90
51011;DHT22;37038;50.182;8.624;2024-01-07T14:57:12;0.70;1.00
51011;DHT22;37038;50.182;8.624;2024-01-07T15:00:06;0.70;99.90
51011;DHT22;37038;50.182;8.624;2024-01-07T15:02:55;0.60;1.00
51011;DHT22;37038;50.182;8.624;2024-01-07T15:05:52;0.70;99.90
51011;DHT22;37038;50.182;8.624;2024-01-07T15:08:43;0.60;95.40
51011;DHT22;37038;50.182;8.624;2024-01-07T15:11:47;0.60;99.90
51011;DHT22;37038;50.182;8.624;2024-01-07T15:14:55;0.40;1.00
51011;DHT22;37038;50.182;8.624;2024-01-07T15:17:51;0.30;1.00
51011;DHT22;37038;50.182;8.624;2024-01-07T15:20:45;0.10;99.90
51011;DHT22;37038;50.182;8.624;2024-01-07T15:23:48;0.10;99.90
51011;DHT22;37038;50.182;8.624;2024-01-07T15:26:40;-0.10;99.90
51011;DHT22;37038;50.182;8.624;2024-01-07T15:29:31;-0.10;1.00
51011;DHT22;37038;50.182;8.624;2024-01-07T15:32:22;-0.10;1.00
51011;DHT22;37038;50.182;8.624;2024-01-07T15:35:10;-0.20;99.90
51011;DHT22;37038;50.182;8.624;2024-01-07T15:38:01;-0.30;1.00
51011;DHT22;37038;50.182;8.624;2024-01-07T15:41:13;-0.30;99.90
51011;DHT22;37038;50.182;8.624;2024-01-07T15:44:33;-0.40;99.90
51011;DHT22;37038;50.182;8.624;2024-01-07T15:51:22;-0.40;99.90
51011;DHT22;37038;50.182;8.624;2024-01-07T15:59:29;-0.50;61.20
51011;DHT22;37038;50.182;8.624;2024-01-07T16:02:18;-0.60;61.90
51011;DHT22;37038;50.182;8.624;2024-01-07T16:05:06;-0.60;99.90
51011;DHT22;37038;50.182;8.624;2024-01-07T16:07:55;-0.70;44.50
51011;DHT22;37038;50.182;8.624;2024-01-07T16:10:43;-0.70;77.00
51011;DHT22;37038;50.182;8.624;2024-01-07T16:13:33;-0.70;24.70
51011;DHT22;37038;50.182;8.624;2024-01-07T16:16:24;-0.80;40.40
51011;DHT22;37038;50.182;8.624;2024-01-07T16:19:13;-0.80;26.50
51011;DHT22;37038;50.182;8.624;2024-01-07T16:22:01;-0.70;79.60
51011;DHT22;37038;50.182;8.624;2024-01-07T16:25:00;-0.70;19.00
51011;DHT22;37038;50.182;8.624;2024-01-07T16:27:58;-0.80;1.00
51011;DHT22;37038;50.182;8.624;2024-01-07T16:30:49;-0.80;1.00
51011;DHT22;37038;50.182;8.624;2024-01-07T16:33:38;-0.90;1.00
51011;DHT22;37038;50.182;8.624;2024-01-07T16:36:26;-0.80;1.00
51011;DHT22;37038;50.182;8.624;2024-01-07T16:39:18;-0.80;1.00
51011;DHT22;37038;50.182;8.624;2024-01-07T16:42:07;-0.90;1.00
51011;DHT22;37038;50.182;8.624;2024-01-07T16:44:55;-0.90;1.00
51011;DHT22;37038;50.182;8.624;2024-01-07T16:47:43;-0.90;1.00
51011;DHT22;37038;50.182;8.624;2024-01-07T16:50:32;-1.00;1.00
51011;DHT22;37038;50.182;8.624;2024-01-07T16:53:23;-1.00;1.00
51011;DHT22;37038;50.182;8.624;2024-01-07T16:56:11;-1.10;1.00
51011;DHT22;37038;50.182;8.624;2024-01-07T16:59:03;-1.10;1.00
51011;DHT22;37038;50.182;8.624;2024-01-07T17:01:51;-1.00;1.00
51011;DHT22;37038;50.182;8.624;2024-01-07T17:04:40;-1.10;1.00
51011;DHT22;37038;50.182;8.624;2024-01-07T17:07:28;-1.00;1.00
51011;DHT22;37038;50.182;8.624;2024-01-07T17:10:18;-1.00;1.00
51011;DHT22;37038;50.182;8.624;2024-01-07T17:13:06;-0.90;1.00
51011;DHT22;37038;50.182;8.624;2024-01-07T17:15:56;-0.90;1.00
51011;DHT22;37038;50.182;8.624;2024-01-07T17:18:44;-0.80;1.00
51011;DHT22;37038;50.182;8.624;2024-01-07T17:21:36;-0.80;1.00
51011;DHT22;37038;50.182;8.624;2024-01-07T17:24:24;-0.80;1.00
51011;DHT22;37038;50.182;8.624;2024-01-07T17:27:12;-0.80;1.00
51011;DHT22;37038;50.182;8.624;2024-01-07T17:30:01;-0.80;1.00
51011;DHT22;37038;50.182;8.624;2024-01-07T17:32:49;-0.80;1.00
51011;DHT22;37038;50.182;8.624;2024-01-07T17:35:43;-0.80;1.00
51011;DHT22;37038;50.182;8.624;2024-01-07T17:38:34;-0.80;1.00
51011;DHT22;37038;50.182;8.624;2024-01-07T17:41:22;-0.80;1.00
51011;DHT22;37038;50.182;8.624;2024-01-07T17:44:13;-0.80;1.00
51011;DHT22;37038;50.182;8.624;2024-01-07T17:47:02;-0.80;1.00
51011;DHT22;37038;50.182;8.624;2024-01-07T17:49:55;-0.80;1.00
51011;DHT22;37038;50.182;8.624;2024-01-07T17:52:47;-0.90;1.00
51011;DHT22;37038;50.182;8.624;2024-01-07T17:55:36;-0.90;1.00
51011;DHT22;37038;50.182;8.624;2024-01-07T17:58:24;-0.90;1.00
51011;DHT22;37038;50.182;8.624;2024-01-07T18:01:12;-1.00;1.00
51011;DHT22;37038;50.182;8.624;2024-01-07T18:04:01;-1.00;1.00
51011;DHT22;37038;50.182;8.624;2024-01-07T18:06:49;-1.10;99.90
51011;DHT22;37038;50.182;8.624;2024-01-07T18:09:37;-1.00;1.00
51011;DHT22;37038;50.182;8.624;2024-01-07T18:12:28;-1.00;1.00
51011;DHT22;37038;50.182;8.624;2024-01-07T18:15:19;-1.00;1.00
51011;DHT22;37038;50.182;8.624;2024-01-07T18:18:07;-1.00;1.00
51011;DHT22;37038;50.182;8.624;2024-01-07T18:20:58;-1.00;1.00
51011;DHT22;37038;50.182;8.624;2024-01-07T18:23:47;-1.00;99.90
51011;DHT22;37038;50.182;8.624;2024-01-07T18:26:38;-1.00;1.00
51011;DHT22;37038;50.182;8.624;2024-01-07T18:29:27;-0.90;1.00
51011;DHT22;37038;50.182;8.624;2024-01-07T18:32:15;-0.90;1.00
51011;DHT22;37038;50.182;8.624;2024-01-07T18:35:04;-0.90;1.00
51011;DHT22;37038;50.182;8.624;2024-01-07T18:37:53;-0.90;1.00
51011;DHT22;37038;50.182;8.624;2024-01-07T18:40:44;-0.80;1.00
51011;DHT22;37038;50.182;8.624;2024-01-07T18:43:32;-0.80;1.00
51011;DHT22;37038;50.182;8.624;2024-01-07T18:46:20;-0.80;1.00
51011;DHT22;37038;50.182;8.624;2024-01-07T18:49:09;-0.70;1.00
51011;DHT22;37038;50.182;8.624;2024-01-07T18:51:57;-0.70;1.00
51011;DHT22;37038;50.182;8.624;2024-01-07T18:54:45;-0.60;1.00
51011;DHT22;37038;50.182;8.624;2024-01-07T18:57:34;-0.70;1.00
51011;DHT22;37038;50.182;8.624;2024-01-07T19:00:23;-0.70;1.00
51011;DHT22;37038;50.182;8.624;2024-01-07T19:03:14;-0.70;1.00
51011;DHT22;37038;50.182;8.624;2024-01-07T19:06:04;-0.70;1.00
51011;DHT22;37038;50.182;8.624;2024-01-07T19:08:52;-0.60;1.00
51011;DHT22;37038;50.182;8.624;2024-01-07T19:11:42;-0.60;1.00
51011;DHT22;37038;50.182;8.624;2024-01-07T19:14:32;-0.60;1.00
51011;DHT22;37038;50.182;8.624;2024-01-07T19:17:25;-0.60;1.00
51011;DHT22;37038;50.182;8.624;2024-01-07T19:20:14;-0.60;1.00
51011;DHT22;37038;50.182;8.624;2024-01-07T19:23:02;-0.60;1.00
51011;DHT22;37038;50.182;8.624;2024-01-07T19:25:53;-0.50;1.00
51011;DHT22;37038;50.182;8.624;2024-01-07T19:28:41;-0.60;1.00